sim
Sign-in with your pilot id or email,
or register
Callsign
Passwort

Schedule Details

Flight Number: OEF9061
Departure: Boston Logan International Airport (KBOS) at 05:00
Arrival: Munich Airport (EDDM) at 11:40

Weather Information
Getting current METAR information for KBOS 282254Z 17007KT 10SM FEW028 FEW060 SCT150 BKN250 20/18 A2992 RMK AO2 SLP132 T02000183
Getting current METAR information for EDDM 282250Z 09002KT 9999 SCT048 08/07 Q1016 NOSIG

Schedule Frequency

Route Map